sensor_id;sensor_type;location;lat;lon;timestamp;temperature;humidity
14142;DHT22;7151;52.246;4.820;2022-11-20T00:01:23;5.80;64.30
14142;DHT22;7151;52.246;4.820;2022-11-20T00:03:50;5.80;64.40
14142;DHT22;7151;52.246;4.820;2022-11-20T00:06:18;5.70;64.50
14142;DHT22;7151;52.246;4.820;2022-11-20T00:08:44;5.70;64.50
14142;DHT22;7151;52.246;4.820;2022-11-20T00:11:15;5.70;64.60
14142;DHT22;7151;52.246;4.820;2022-11-20T00:13:42;5.70;64.60
14142;DHT22;7151;52.246;4.820;2022-11-20T00:16:10;5.70;64.60
14142;DHT22;7151;52.246;4.820;2022-11-20T00:18:36;5.60;64.60
14142;DHT22;7151;52.246;4.820;2022-11-20T00:21:07;5.60;64.70
14142;DHT22;7151;52.246;4.820;2022-11-20T00:23:34;5.60;64.80
14142;DHT22;7151;52.246;4.820;2022-11-20T00:26:09;5.60;64.80
14142;DHT22;7151;52.246;4.820;2022-11-20T00:28:35;5.60;64.90
14142;DHT22;7151;52.246;4.820;2022-11-20T00:31:09;5.50;64.90
14142;DHT22;7151;52.246;4.820;2022-11-20T00:33:35;5.50;64.90
14142;DHT22;7151;52.246;4.820;2022-11-20T00:36:06;5.50;65.60
14142;DHT22;7151;52.246;4.820;2022-11-20T00:38:32;5.50;65.00
14142;DHT22;7151;52.246;4.820;2022-11-20T00:40:59;5.40;64.90
14142;DHT22;7151;52.246;4.820;2022-11-20T00:43:25;5.40;65.00
14142;DHT22;7151;52.246;4.820;2022-11-20T00:45:56;5.40;65.00
14142;DHT22;7151;52.246;4.820;2022-11-20T00:48:22;5.40;65.10
14142;DHT22;7151;52.246;4.820;2022-11-20T00:50:47;5.40;65.10
14142;DHT22;7151;52.246;4.820;2022-11-20T00:53:14;5.30;65.20
14142;DHT22;7151;52.246;4.820;2022-11-20T00:55:39;5.30;65.20
14142;DHT22;7151;52.246;4.820;2022-11-20T00:58:05;5.30;65.20
14142;DHT22;7151;52.246;4.820;2022-11-20T01:00:30;5.30;65.20
14142;DHT22;7151;52.246;4.820;2022-11-20T01:02:56;5.30;65.30
14142;DHT22;7151;52.246;4.820;2022-11-20T01:05:21;5.30;65.30
14142;DHT22;7151;52.246;4.820;2022-11-20T01:07:47;5.20;65.30
14142;DHT22;7151;52.246;4.820;2022-11-20T01:10:12;5.20;65.30
14142;DHT22;7151;52.246;4.820;2022-11-20T01:12:38;5.20;65.50
14142;DHT22;7151;52.246;4.820;2022-11-20T01:15:04;5.20;65.50
14142;DHT22;7151;52.246;4.820;2022-11-20T01:17:31;5.20;65.60
14142;DHT22;7151;52.246;4.820;2022-11-20T01:19:57;5.20;65.60
14142;DHT22;7151;52.246;4.820;2022-11-20T01:22:22;5.20;65.60
14142;DHT22;7151;52.246;4.820;2022-11-20T01:24:48;5.10;65.50
14142;DHT22;7151;52.246;4.820;2022-11-20T01:27:13;5.10;65.60
14142;DHT22;7151;52.246;4.820;2022-11-20T01:29:39;5.10;65.60
14142;DHT22;7151;52.246;4.820;2022-11-20T01:32:05;5.10;65.60
14142;DHT22;7151;52.246;4.820;2022-11-20T01:34:30;5.10;65.60
14142;DHT22;7151;52.246;4.820;2022-11-20T01:36:56;5.10;65.60
14142;DHT22;7151;52.246;4.820;2022-11-20T01:39:24;5.00;65.60
14142;DHT22;7151;52.246;4.820;2022-11-20T01:41:51;5.00;65.60
14142;DHT22;7151;52.246;4.820;2022-11-20T01:53:02;4.90;65.60
14142;DHT22;7151;52.246;4.820;2022-11-20T01:55:36;4.90;65.60
14142;DHT22;7151;52.246;4.820;2022-11-20T01:58:03;4.90;65.70
14142;DHT22;7151;52.246;4.820;2022-11-20T02:00:29;4.90;65.80
14142;DHT22;7151;52.246;4.820;2022-11-20T02:03:00;4.90;65.90
14142;DHT22;7151;52.246;4.820;2022-11-20T02:08:20;4.90;66.00
14142;DHT22;7151;52.246;4.820;2022-11-20T02:10:47;4.80;65.90
14142;DHT22;7151;52.246;4.820;2022-11-20T02:13:12;4.80;66.00
14142;DHT22;7151;52.246;4.820;2022-11-20T02:15:56;4.80;65.90
14142;DHT22;7151;52.246;4.820;2022-11-20T02:18:23;4.80;66.00
14142;DHT22;7151;52.246;4.820;2022-11-20T02:20:59;4.80;66.00
14142;DHT22;7151;52.246;4.820;2022-11-20T02:25:55;4.80;66.00
14142;DHT22;7151;52.246;4.820;2022-11-20T02:28:23;4.70;65.90
14142;DHT22;7151;52.246;4.820;2022-11-20T02:30:48;4.70;65.90
14142;DHT22;7151;52.246;4.820;2022-11-20T02:33:14;4.70;66.00
14142;DHT22;7151;52.246;4.820;2022-11-20T02:35:42;4.90;66.10
14142;DHT22;7151;52.246;4.820;2022-11-20T02:38:08;4.70;66.00
14142;DHT22;7151;52.246;4.820;2022-11-20T02:40:34;4.70;66.10
14142;DHT22;7151;52.246;4.820;2022-11-20T02:43:00;4.70;66.20
14142;DHT22;7151;52.246;4.820;2022-11-20T02:45:25;4.60;66.10
14142;DHT22;7151;52.246;4.820;2022-11-20T02:47:51;4.60;66.10
14142;DHT22;7151;52.246;4.820;2022-11-20T02:50:17;4.60;66.20
14142;DHT22;7151;52.246;4.820;2022-11-20T02:52:43;4.60;66.20
14142;DHT22;7151;52.246;4.820;2022-11-20T02:55:09;4.60;66.20
14142;DHT22;7151;52.246;4.820;2022-11-20T02:57:34;4.60;66.20
14142;DHT22;7151;52.246;4.820;2022-11-20T03:00:00;4.60;66.30
14142;DHT22;7151;52.246;4.820;2022-11-20T03:02:29;4.60;66.30
14142;DHT22;7151;52.246;4.820;2022-11-20T03:04:54;4.60;66.30
14142;DHT22;7151;52.246;4.820;2022-11-20T03:07:20;4.60;66.40
14142;DHT22;7151;52.246;4.820;2022-11-20T03:09:45;4.70;66.50
14142;DHT22;7151;52.246;4.820;2022-11-20T03:12:11;4.50;66.30
14142;DHT22;7151;52.246;4.820;2022-11-20T03:14:36;4.50;66.40
14142;DHT22;7151;52.246;4.820;2022-11-20T03:17:02;4.50;66.40
14142;DHT22;7151;52.246;4.820;2022-11-20T03:19:28;4.50;66.40
14142;DHT22;7151;52.246;4.820;2022-11-20T03:21:53;4.50;66.50
14142;DHT22;7151;52.246;4.820;2022-11-20T03:24:19;4.50;66.50
14142;DHT22;7151;52.246;4.820;2022-11-20T03:26:45;4.50;66.50
14142;DHT22;7151;52.246;4.820;2022-11-20T03:29:10;4.40;66.50
14142;DHT22;7151;52.246;4.820;2022-11-20T03:31:40;4.40;66.50
14142;DHT22;7151;52.246;4.820;2022-11-20T03:34:07;4.40;66.60
14142;DHT22;7151;52.246;4.820;2022-11-20T03:36:32;4.40;66.60
14142;DHT22;7151;52.246;4.820;2022-11-20T03:38:59;4.40;66.60
14142;DHT22;7151;52.246;4.820;2022-11-20T03:41:30;4.40;66.60
14142;DHT22;7151;52.246;4.820;2022-11-20T03:44:00;4.40;66.70
14142;DHT22;7151;52.246;4.820;2022-11-20T03:46:27;4.40;66.80
14142;DHT22;7151;52.246;4.820;2022-11-20T03:48:53;4.40;66.80
14142;DHT22;7151;52.246;4.820;2022-11-20T03:51:22;4.40;66.80
14142;DHT22;7151;52.246;4.820;2022-11-20T03:53:49;4.40;66.80
14142;DHT22;7151;52.246;4.820;2022-11-20T03:56:17;4.30;66.80
14142;DHT22;7151;52.246;4.820;2022-11-20T03:58:43;4.30;66.80
14142;DHT22;7151;52.246;4.820;2022-11-20T04:01:11;4.30;66.90
14142;DHT22;7151;52.246;4.820;2022-11-20T04:03:37;4.30;66.90
14142;DHT22;7151;52.246;4.820;2022-11-20T04:06:05;4.30;66.90
14142;DHT22;7151;52.246;4.820;2022-11-20T04:08:31;4.30;67.00
14142;DHT22;7151;52.246;4.820;2022-11-20T04:11:08;4.30;67.00
14142;DHT22;7151;52.246;4.820;2022-11-20T04:13:34;4.30;67.00
14142;DHT22;7151;52.246;4.820;2022-11-20T04:15:59;4.30;67.00
14142;DHT22;7151;52.246;4.820;2022-11-20T04:18:25;4.30;67.80
14142;DHT22;7151;52.246;4.820;2022-11-20T04:20:50;4.30;67.10
14142;DHT22;7151;52.246;4.820;2022-11-20T04:23:16;4.30;67.00
14142;DHT22;7151;52.246;4.820;2022-11-20T04:25:41;4.30;67.10
14142;DHT22;7151;52.246;4.820;2022-11-20T04:28:07;4.30;67.10
14142;DHT22;7151;52.246;4.820;2022-11-20T04:30:32;4.30;67.10
14142;DHT22;7151;52.246;4.820;2022-11-20T04:32:58;4.10;67.00
14142;DHT22;7151;52.246;4.820;2022-11-20T04:35:23;4.20;67.80
14142;DHT22;7151;52.246;4.820;2022-11-20T04:37:51;4.20;67.80
14142;DHT22;7151;52.246;4.820;2022-11-20T04:40:17;4.20;67.10
14142;DHT22;7151;52.246;4.820;2022-11-20T04:42:43;4.20;67.10
14142;DHT22;7151;52.246;4.820;2022-11-20T04:45:09;4.20;67.10
14142;DHT22;7151;52.246;4.820;2022-11-20T04:47:34;4.20;67.10
14142;DHT22;7151;52.246;4.820;2022-11-20T04:50:00;4.20;67.10
14142;DHT22;7151;52.246;4.820;2022-11-20T04:52:25;4.20;67.20
14142;DHT22;7151;52.246;4.820;2022-11-20T04:54:51;4.20;67.10
14142;DHT22;7151;52.246;4.820;2022-11-20T04:57:18;4.20;67.20
14142;DHT22;7151;52.246;4.820;2022-11-20T04:59:44;4.20;67.20
14142;DHT22;7151;52.246;4.820;2022-11-20T05:02:10;4.20;67.30
14142;DHT22;7151;52.246;4.820;2022-11-20T05:04:36;4.20;67.20
14142;DHT22;7151;52.246;4.820;2022-11-20T05:07:01;4.20;67.20
14142;DHT22;7151;52.246;4.820;2022-11-20T05:09:27;4.20;67.30
14142;DHT22;7151;52.246;4.820;2022-11-20T05:11:53;4.20;67.30
14142;DHT22;7151;52.246;4.820;2022-11-20T05:14:18;4.20;67.30
14142;DHT22;7151;52.246;4.820;2022-11-20T05:16:44;4.20;67.30
14142;DHT22;7151;52.246;4.820;2022-11-20T05:19:10;4.20;67.30
14142;DHT22;7151;52.246;4.820;2022-11-20T05:21:35;4.10;67.20
14142;DHT22;7151;52.246;4.820;2022-11-20T05:24:01;4.10;67.20
14142;DHT22;7151;52.246;4.820;2022-11-20T05:26:27;4.10;67.20
14142;DHT22;7151;52.246;4.820;2022-11-20T05:28:52;4.10;67.20
14142;DHT22;7151;52.246;4.820;2022-11-20T05:31:23;4.10;67.20
14142;DHT22;7151;52.246;4.820;2022-11-20T05:33:49;4.10;67.20
14142;DHT22;7151;52.246;4.820;2022-11-20T05:36:15;4.10;67.10
14142;DHT22;7151;52.246;4.820;2022-11-20T05:38:41;4.00;67.10
14142;DHT22;7151;52.246;4.820;2022-11-20T05:41:15;4.00;67.10
14142;DHT22;7151;52.246;4.820;2022-11-20T05:43:43;4.00;67.20
14142;DHT22;7151;52.246;4.820;2022-11-20T05:46:10;4.00;67.20
14142;DHT22;7151;52.246;4.820;2022-11-20T05:48:37;4.00;67.20
14142;DHT22;7151;52.246;4.820;2022-11-20T05:51:05;3.90;67.20
14142;DHT22;7151;52.246;4.820;2022-11-20T05:53:32;3.90;67.30
14142;DHT22;7151;52.246;4.820;2022-11-20T05:55:59;3.90;67.30
14142;DHT22;7151;52.246;4.820;2022-11-20T05:58:25;3.90;67.40
14142;DHT22;7151;52.246;4.820;2022-11-20T06:00:51;3.90;67.30
14142;DHT22;7151;52.246;4.820;2022-11-20T06:03:17;3.90;67.40
14142;DHT22;7151;52.246;4.820;2022-11-20T06:05:42;3.90;67.50
14142;DHT22;7151;52.246;4.820;2022-11-20T06:08:08;3.90;67.50
14142;DHT22;7151;52.246;4.820;2022-11-20T06:10:33;3.90;67.60
14142;DHT22;7151;52.246;4.820;2022-11-20T06:12:59;3.90;67.60
14142;DHT22;7151;52.246;4.820;2022-11-20T06:15:25;3.90;67.60
14142;DHT22;7151;52.246;4.820;2022-11-20T06:17:54;3.90;67.70
14142;DHT22;7151;52.246;4.820;2022-11-20T06:20:20;3.90;67.80
14142;DHT22;7151;52.246;4.820;2022-11-20T06:22:46;3.90;67.80
14142;DHT22;7151;52.246;4.820;2022-11-20T06:25:12;3.90;67.80
14142;DHT22;7151;52.246;4.820;2022-11-20T06:27:37;3.90;67.80
14142;DHT22;7151;52.246;4.820;2022-11-20T06:30:04;3.90;68.50
14142;DHT22;7151;52.246;4.820;2022-11-20T06:32:29;3.90;67.90
14142;DHT22;7151;52.246;4.820;2022-11-20T06:34:55;3.90;67.90
14142;DHT22;7151;52.246;4.820;2022-11-20T06:37:20;3.90;67.90
14142;DHT22;7151;52.246;4.820;2022-11-20T06:39:46;3.90;68.00
14142;DHT22;7151;52.246;4.820;2022-11-20T06:42:12;3.90;68.00
14142;DHT22;7151;52.246;4.820;2022-11-20T06:44:37;3.90;68.00
14142;DHT22;7151;52.246;4.820;2022-11-20T06:47:03;3.90;68.10
14142;DHT22;7151;52.246;4.820;2022-11-20T06:49:28;3.90;68.10
14142;DHT22;7151;52.246;4.820;2022-11-20T06:51:54;3.90;68.10
14142;DHT22;7151;52.246;4.820;2022-11-20T06:54:19;3.90;68.10
14142;DHT22;7151;52.246;4.820;2022-11-20T06:56:48;3.90;68.20
14142;DHT22;7151;52.246;4.820;2022-11-20T06:59:14;3.90;68.20
14142;DHT22;7151;52.246;4.820;2022-11-20T07:01:39;3.90;68.20
14142;DHT22;7151;52.246;4.820;2022-11-20T07:04:05;3.90;68.20
14142;DHT22;7151;52.246;4.820;2022-11-20T07:06:31;3.90;68.20
14142;DHT22;7151;52.246;4.820;2022-11-20T07:08:56;3.90;68.30
14142;DHT22;7151;52.246;4.820;2022-11-20T07:11:22;3.90;68.30
14142;DHT22;7151;52.246;4.820;2022-11-20T07:13:48;3.90;68.40
14142;DHT22;7151;52.246;4.820;2022-11-20T07:16:15;3.90;68.40
14142;DHT22;7151;52.246;4.820;2022-11-20T07:18:41;3.90;68.40
14142;DHT22;7151;52.246;4.820;2022-11-20T07:21:09;3.90;68.40
14142;DHT22;7151;52.246;4.820;2022-11-20T07:23:36;3.90;68.40
14142;DHT22;7151;52.246;4.820;2022-11-20T07:26:06;3.90;68.40
14142;DHT22;7151;52.246;4.820;2022-11-20T07:28:32;3.90;68.40
14142;DHT22;7151;52.246;4.820;2022-11-20T07:30:57;3.90;69.10
14142;DHT22;7151;52.246;4.820;2022-11-20T07:33:23;3.90;68.50
14142;DHT22;7151;52.246;4.820;2022-11-20T07:35:49;3.90;68.50
14142;DHT22;7151;52.246;4.820;2022-11-20T07:38:14;3.90;68.50
14142;DHT22;7151;52.246;4.820;2022-11-20T07:40:40;4.00;68.60
14142;DHT22;7151;52.246;4.820;2022-11-20T07:43:06;4.00;68.60
14142;DHT22;7151;52.246;4.820;2022-11-20T07:45:31;4.00;68.60
14142;DHT22;7151;52.246;4.820;2022-11-20T07:47:57;3.90;68.60
14142;DHT22;7151;52.246;4.820;2022-11-20T07:50:22;4.00;68.70
14142;DHT22;7151;52.246;4.820;2022-11-20T07:52:48;4.00;68.80
14142;DHT22;7151;52.246;4.820;2022-11-20T07:55:14;4.00;68.80
14142;DHT22;7151;52.246;4.820;2022-11-20T07:57:39;4.00;68.80
14142;DHT22;7151;52.246;4.820;2022-11-20T08:00:07;4.00;69.00
14142;DHT22;7151;52.246;4.820;2022-11-20T08:02:39;4.00;69.00
14142;DHT22;7151;52.246;4.820;2022-11-20T08:05:06;4.10;69.10
14142;DHT22;7151;52.246;4.820;2022-11-20T08:07:43;4.10;69.00
14142;DHT22;7151;52.246;4.820;2022-11-20T08:10:10;4.10;69.10
14142;DHT22;7151;52.246;4.820;2022-11-20T08:12:42;4.10;69.10
14142;DHT22;7151;52.246;4.820;2022-11-20T08:15:26;4.00;69.00
14142;DHT22;7151;52.246;4.820;2022-11-20T08:17:58;4.10;69.10
14142;DHT22;7151;52.246;4.820;2022-11-20T08:20:24;4.10;69.10
14142;DHT22;7151;52.246;4.820;2022-11-20T08:22:49;4.10;69.20
14142;DHT22;7151;52.246;4.820;2022-11-20T08:25:15;4.10;69.30
14142;DHT22;7151;52.246;4.820;2022-11-20T08:27:40;4.20;69.40
14142;DHT22;7151;52.246;4.820;2022-11-20T08:30:06;4.20;69.40
14142;DHT22;7151;52.246;4.820;2022-11-20T08:32:32;4.20;69.50
14142;DHT22;7151;52.246;4.820;2022-11-20T08:35:00;4.20;69.50
14142;DHT22;7151;52.246;4.820;2022-11-20T08:37:25;4.20;69.50
14142;DHT22;7151;52.246;4.820;2022-11-20T08:39:51;4.30;69.60
14142;DHT22;7151;52.246;4.820;2022-11-20T08:42:18;4.30;69.60
14142;DHT22;7151;52.246;4.820;2022-11-20T08:44:44;4.30;69.80
14142;DHT22;7151;52.246;4.820;2022-11-20T08:47:09;4.30;69.80
14142;DHT22;7151;52.246;4.820;2022-11-20T08:49:35;4.30;69.80
14142;DHT22;7151;52.246;4.820;2022-11-20T08:52:00;4.30;69.90
14142;DHT22;7151;52.246;4.820;2022-11-20T08:54:26;4.30;69.90
14142;DHT22;7151;52.246;4.820;2022-11-20T08:56:51;4.40;70.00
14142;DHT22;7151;52.246;4.820;2022-11-20T08:59:17;4.40;70.00
14142;DHT22;7151;52.246;4.820;2022-11-20T09:01:43;4.40;70.00
14142;DHT22;7151;52.246;4.820;2022-11-20T09:04:08;4.40;70.00
14142;DHT22;7151;52.246;4.820;2022-11-20T09:06:34;4.50;70.20
14142;DHT22;7151;52.246;4.820;2022-11-20T09:08:59;4.50;70.10
14142;DHT22;7151;52.246;4.820;2022-11-20T09:11:25;4.50;70.10
14142;DHT22;7151;52.246;4.820;2022-11-20T09:13:51;4.50;70.10
14142;DHT22;7151;52.246;4.820;2022-11-20T09:16:16;4.50;70.10
14142;DHT22;7151;52.246;4.820;2022-11-20T09:18:42;4.60;70.10
14142;DHT22;7151;52.246;4.820;2022-11-20T09:21:12;4.60;70.10
14142;DHT22;7151;52.246;4.820;2022-11-20T09:23:39;4.60;70.20
14142;DHT22;7151;52.246;4.820;2022-11-20T09:26:07;4.60;70.30
14142;DHT22;7151;52.246;4.820;2022-11-20T09:28:33;4.60;70.30
14142;DHT22;7151;52.246;4.820;2022-11-20T09:30:59;4.60;70.30
14142;DHT22;7151;52.246;4.820;2022-11-20T09:33:24;4.60;70.40
14142;DHT22;7151;52.246;4.820;2022-11-20T09:35:50;4.60;70.40
14142;DHT22;7151;52.246;4.820;2022-11-20T09:38:16;4.70;70.40
14142;DHT22;7151;52.246;4.820;2022-11-20T09:41:13;4.70;70.60
14142;DHT22;7151;52.246;4.820;2022-11-20T09:44:19;4.70;70.70
14142;DHT22;7151;52.246;4.820;2022-11-20T09:46:55;4.70;70.70
14142;DHT22;7151;52.246;4.820;2022-11-20T09:54:40;4.80;71.30
14142;DHT22;7151;52.246;4.820;2022-11-20T09:57:19;4.90;71.50
14142;DHT22;7151;52.246;4.820;2022-11-20T10:00:00;5.00;71.40
14142;DHT22;7151;52.246;4.820;2022-11-20T10:05:53;5.10;71.30
14142;DHT22;7151;52.246;4.820;2022-11-20T10:10:53;5.10;71.20
14142;DHT22;7151;52.246;4.820;2022-11-20T10:29:36;5.30;71.30
14142;DHT22;7151;52.246;4.820;2022-11-20T10:32:23;5.30;71.30
14142;DHT22;7151;52.246;4.820;2022-11-20T10:37:32;5.30;71.40
14142;DHT22;7151;52.246;4.820;2022-11-20T10:42:46;5.30;71.40
14142;DHT22;7151;52.246;4.820;2022-11-20T10:45:27;5.40;71.40
14142;DHT22;7151;52.246;4.820;2022-11-20T10:48:14;5.40;71.40
14142;DHT22;7151;52.246;4.820;2022-11-20T10:56:22;5.30;71.40
14142;DHT22;7151;52.246;4.820;2022-11-20T11:01:42;5.40;71.60
14142;DHT22;7151;52.246;4.820;2022-11-20T11:07:16;5.40;71.70
14142;DHT22;7151;52.246;4.820;2022-11-20T11:09:46;5.40;71.70
14142;DHT22;7151;52.246;4.820;2022-11-20T11:12:13;5.50;71.80
14142;DHT22;7151;52.246;4.820;2022-11-20T11:14:53;5.50;71.90
14142;DHT22;7151;52.246;4.820;2022-11-20T11:17:31;5.50;72.10
14142;DHT22;7151;52.246;4.820;2022-11-20T11:20:24;5.50;72.10
14142;DHT22;7151;52.246;4.820;2022-11-20T11:22:55;5.50;72.30
14142;DHT22;7151;52.246;4.820;2022-11-20T11:25:35;5.60;72.40
14142;DHT22;7151;52.246;4.820;2022-11-20T11:28:03;5.60;72.70
14142;DHT22;7151;52.246;4.820;2022-11-20T11:30:40;5.60;72.70
14142;DHT22;7151;52.246;4.820;2022-11-20T11:33:10;5.70;73.00
14142;DHT22;7151;52.246;4.820;2022-11-20T11:35:47;5.70;73.10
14142;DHT22;7151;52.246;4.820;2022-11-20T11:38:22;5.80;73.30
14142;DHT22;7151;52.246;4.820;2022-11-20T11:40:49;5.80;73.40
14142;DHT22;7151;52.246;4.820;2022-11-20T11:43:21;5.80;73.40
14142;DHT22;7151;52.246;4.820;2022-11-20T11:46:29;5.80;73.60
14142;DHT22;7151;52.246;4.820;2022-11-20T11:48:59;5.80;73.80
14142;DHT22;7151;52.246;4.820;2022-11-20T11:51:51;5.90;73.90
14142;DHT22;7151;52.246;4.820;2022-11-20T11:57:14;5.90;74.20
14142;DHT22;7151;52.246;4.820;2022-11-20T12:02:38;6.00;74.50
14142;DHT22;7151;52.246;4.820;2022-11-20T12:05:30;6.00;74.70
14142;DHT22;7151;52.246;4.820;2022-11-20T12:11:20;6.10;74.80
14142;DHT22;7151;52.246;4.820;2022-11-20T12:16:11;6.10;75.10
14142;DHT22;7151;52.246;4.820;2022-11-20T12:18:39;6.10;75.20
14142;DHT22;7151;52.246;4.820;2022-11-20T12:21:18;6.10;75.20
14142;DHT22;7151;52.246;4.820;2022-11-20T12:23:59;6.20;75.40
14142;DHT22;7151;52.246;4.820;2022-11-20T12:29:42;6.20;75.70
14142;DHT22;7151;52.246;4.820;2022-11-20T12:37:37;6.20;76.00
14142;DHT22;7151;52.246;4.820;2022-11-20T12:40:32;6.30;76.30
14142;DHT22;7151;52.246;4.820;2022-11-20T12:46:08;6.30;76.20
14142;DHT22;7151;52.246;4.820;2022-11-20T12:57:09;6.40;77.10
14142;DHT22;7151;52.246;4.820;2022-11-20T13:05:18;6.50;77.00
14142;DHT22;7151;52.246;4.820;2022-11-20T13:07:45;6.50;77.00
14142;DHT22;7151;52.246;4.820;2022-11-20T13:10:34;6.50;77.00
14142;DHT22;7151;52.246;4.820;2022-11-20T13:13:07;6.50;77.10
14142;DHT22;7151;52.246;4.820;2022-11-20T13:15:53;6.50;77.20
14142;DHT22;7151;52.246;4.820;2022-11-20T13:18:21;6.50;78.10
14142;DHT22;7151;52.246;4.820;2022-11-20T13:20:46;6.50;77.40
14142;DHT22;7151;52.246;4.820;2022-11-20T13:23:24;6.50;77.50
14142;DHT22;7151;52.246;4.820;2022-11-20T13:25:51;6.50;77.70
14142;DHT22;7151;52.246;4.820;2022-11-20T13:30:51;6.50;77.80
14142;DHT22;7151;52.246;4.820;2022-11-20T13:33:33;6.50;78.10
14142;DHT22;7151;52.246;4.820;2022-11-20T13:36:05;6.50;78.10
14142;DHT22;7151;52.246;4.820;2022-11-20T13:38:50;6.50;78.20
14142;DHT22;7151;52.246;4.820;2022-11-20T13:41:33;6.50;78.40
14142;DHT22;7151;52.246;4.820;2022-11-20T13:46:45;6.60;78.50
14142;DHT22;7151;52.246;4.820;2022-11-20T13:52:28;6.60;78.70
14142;DHT22;7151;52.246;4.820;2022-11-20T13:55:02;6.60;78.70
14142;DHT22;7151;52.246;4.820;2022-11-20T13:57:43;6.60;78.70
14142;DHT22;7151;52.246;4.820;2022-11-20T14:00:23;6.60;78.80
14142;DHT22;7151;52.246;4.820;2022-11-20T14:05:26;6.70;79.10
14142;DHT22;7151;52.246;4.820;2022-11-20T14:07:53;6.60;79.00
14142;DHT22;7151;52.246;4.820;2022-11-20T14:12:46;6.60;79.30
14142;DHT22;7151;52.246;4.820;2022-11-20T14:15:24;6.60;79.40
14142;DHT22;7151;52.246;4.820;2022-11-20T14:17:50;6.60;79.60
14142;DHT22;7151;52.246;4.820;2022-11-20T14:20:16;6.60;79.50
14142;DHT22;7151;52.246;4.820;2022-11-20T14:22:49;6.70;79.70
14142;DHT22;7151;52.246;4.820;2022-11-20T14:27:44;6.70;79.90
14142;DHT22;7151;52.246;4.820;2022-11-20T14:30:18;6.70;80.00
14142;DHT22;7151;52.246;4.820;2022-11-20T14:32:46;6.70;80.20
14142;DHT22;7151;52.246;4.820;2022-11-20T14:35:30;6.70;80.20
14142;DHT22;7151;52.246;4.820;2022-11-20T14:37:56;6.80;80.30
14142;DHT22;7151;52.246;4.820;2022-11-20T14:42:50;6.80;80.40
14142;DHT22;7151;52.246;4.820;2022-11-20T14:45:16;6.80;80.50
14142;DHT22;7151;52.246;4.820;2022-11-20T14:47:43;6.80;80.60
14142;DHT22;7151;52.246;4.820;2022-11-20T14:50:16;6.80;80.60
14142;DHT22;7151;52.246;4.820;2022-11-20T14:52:57;6.80;80.80
14142;DHT22;7151;52.246;4.820;2022-11-20T14:55:38;6.80;80.90
14142;DHT22;7151;52.246;4.820;2022-11-20T14:58:19;6.80;80.80
14142;DHT22;7151;52.246;4.820;2022-11-20T15:00:54;6.80;80.80
14142;DHT22;7151;52.246;4.820;2022-11-20T15:03:20;6.80;81.00
14142;DHT22;7151;52.246;4.820;2022-11-20T15:05:49;6.90;81.50
14142;DHT22;7151;52.246;4.820;2022-11-20T15:08:16;6.90;81.80
14142;DHT22;7151;52.246;4.820;2022-11-20T15:10:47;7.00;81.80
14142;DHT22;7151;52.246;4.820;2022-11-20T15:13:19;7.00;82.30
14142;DHT22;7151;52.246;4.820;2022-11-20T15:15:51;7.00;81.50
14142;DHT22;7151;52.246;4.820;2022-11-20T15:18:19;7.00;82.10
14142;DHT22;7151;52.246;4.820;2022-11-20T15:20:47;7.00;81.30
14142;DHT22;7151;52.246;4.820;2022-11-20T15:23:16;7.00;81.40
14142;DHT22;7151;52.246;4.820;2022-11-20T15:25:44;7.00;81.50
14142;DHT22;7151;52.246;4.820;2022-11-20T15:30:42;7.00;81.50
14142;DHT22;7151;52.246;4.820;2022-11-20T15:33:11;7.00;81.50
14142;DHT22;7151;52.246;4.820;2022-11-20T15:35:37;7.00;81.50
14142;DHT22;7151;52.246;4.820;2022-11-20T15:38:02;7.00;81.50
14142;DHT22;7151;52.246;4.820;2022-11-20T15:40:28;7.00;81.70
14142;DHT22;7151;52.246;4.820;2022-11-20T15:42:53;7.00;81.80
14142;DHT22;7151;52.246;4.820;2022-11-20T15:45:31;7.00;81.80
14142;DHT22;7151;52.246;4.820;2022-11-20T15:47:58;7.00;81.90
14142;DHT22;7151;52.246;4.820;2022-11-20T15:50:29;7.00;82.00
14142;DHT22;7151;52.246;4.820;2022-11-20T15:52:56;7.00;82.10
14142;DHT22;7151;52.246;4.820;2022-11-20T15:55:21;7.00;82.20
14142;DHT22;7151;52.246;4.820;2022-11-20T15:57:47;7.00;82.30
14142;DHT22;7151;52.246;4.820;2022-11-20T16:00:13;7.00;82.40
14142;DHT22;7151;52.246;4.820;2022-11-20T16:02:39;7.00;82.40
14142;DHT22;7151;52.246;4.820;2022-11-20T16:05:10;7.10;82.50
14142;DHT22;7151;52.246;4.820;2022-11-20T16:07:36;7.10;82.70
14142;DHT22;7151;52.246;4.820;2022-11-20T16:10:02;7.10;83.10
14142;DHT22;7151;52.246;4.820;2022-11-20T16:12:28;7.10;83.40
14142;DHT22;7151;52.246;4.820;2022-11-20T16:15:12;7.20;83.40
14142;DHT22;7151;52.246;4.820;2022-11-20T16:17:56;7.20;83.20
14142;DHT22;7151;52.246;4.820;2022-11-20T16:20:22;7.30;83.10
14142;DHT22;7151;52.246;4.820;2022-11-20T16:22:47;7.30;83.10
14142;DHT22;7151;52.246;4.820;2022-11-20T16:25:13;7.30;83.10
14142;DHT22;7151;52.246;4.820;2022-11-20T16:27:39;7.30;83.00
14142;DHT22;7151;52.246;4.820;2022-11-20T16:30:05;7.30;83.00
14142;DHT22;7151;52.246;4.820;2022-11-20T16:32:31;7.30;83.10
14142;DHT22;7151;52.246;4.820;2022-11-20T16:34:56;7.30;83.10
14142;DHT22;7151;52.246;4.820;2022-11-20T16:37:22;7.30;83.10
14142;DHT22;7151;52.246;4.820;2022-11-20T16:39:47;7.30;83.10
14142;DHT22;7151;52.246;4.820;2022-11-20T16:42:13;7.30;83.10
14142;DHT22;7151;52.246;4.820;2022-11-20T16:44:38;7.30;83.30
14142;DHT22;7151;52.246;4.820;2022-11-20T16:47:04;7.30;83.30
14142;DHT22;7151;52.246;4.820;2022-11-20T16:49:30;7.30;83.40
14142;DHT22;7151;52.246;4.820;2022-11-20T16:51:57;7.30;83.40
14142;DHT22;7151;52.246;4.820;2022-11-20T16:54:23;7.30;83.40
14142;DHT22;7151;52.246;4.820;2022-11-20T16:56:49;7.30;83.40
14142;DHT22;7151;52.246;4.820;2022-11-20T16:59:16;7.40;83.50
14142;DHT22;7151;52.246;4.820;2022-11-20T17:01:41;7.40;83.50
14142;DHT22;7151;52.246;4.820;2022-11-20T17:04:08;7.40;83.60
14142;DHT22;7151;52.246;4.820;2022-11-20T17:06:36;7.30;83.50
14142;DHT22;7151;52.246;4.820;2022-11-20T17:09:03;7.40;83.70
14142;DHT22;7151;52.246;4.820;2022-11-20T17:11:28;7.40;83.70
14142;DHT22;7151;52.246;4.820;2022-11-20T17:13:55;7.40;83.80
14142;DHT22;7151;52.246;4.820;2022-11-20T17:16:22;7.40;83.90
14142;DHT22;7151;52.246;4.820;2022-11-20T17:18:49;7.40;83.90
14142;DHT22;7151;52.246;4.820;2022-11-20T17:21:15;7.40;84.00
14142;DHT22;7151;52.246;4.820;2022-11-20T17:23:42;7.40;84.70
14142;DHT22;7151;52.246;4.820;2022-11-20T17:26:11;7.40;84.00
14142;DHT22;7151;52.246;4.820;2022-11-20T17:28:39;7.40;84.10
14142;DHT22;7151;52.246;4.820;2022-11-20T17:31:08;7.40;84.10
14142;DHT22;7151;52.246;4.820;2022-11-20T17:33:35;7.50;84.20
14142;DHT22;7151;52.246;4.820;2022-11-20T17:36:01;7.50;84.20
14142;DHT22;7151;52.246;4.820;2022-11-20T17:38:27;7.50;84.20
14142;DHT22;7151;52.246;4.820;2022-11-20T17:40:52;7.50;84.20
14142;DHT22;7151;52.246;4.820;2022-11-20T17:43:18;7.50;84.20
14142;DHT22;7151;52.246;4.820;2022-11-20T17:45:44;7.50;84.20
14142;DHT22;7151;52.246;4.820;2022-11-20T17:48:10;7.50;84.20
14142;DHT22;7151;52.246;4.820;2022-11-20T17:50:36;7.50;84.20
14142;DHT22;7151;52.246;4.820;2022-11-20T17:53:02;7.50;84.20
14142;DHT22;7151;52.246;4.820;2022-11-20T17:55:27;7.50;84.20
14142;DHT22;7151;52.246;4.820;2022-11-20T17:58:13;7.50;84.20
14142;DHT22;7151;52.246;4.820;2022-11-20T18:00:38;7.50;84.20
14142;DHT22;7151;52.246;4.820;2022-11-20T18:03:04;7.50;84.30
14142;DHT22;7151;52.246;4.820;2022-11-20T18:05:29;7.50;84.30
14142;DHT22;7151;52.246;4.820;2022-11-20T18:07:55;7.50;84.30